createdAt,value
2024-04-26T00:00:26.877Z,23.38
2024-04-26T00:03:00.838Z,22.77
2024-04-26T00:05:31.636Z,22.67
2024-04-26T00:08:03.075Z,20.48
2024-04-26T00:10:34.488Z,20.88
2024-04-26T00:13:06.635Z,21.90
2024-04-26T00:15:38.485Z,21.67
2024-04-26T00:18:12.479Z,22.38
2024-04-26T00:20:43.329Z,22.35
2024-04-26T00:23:14.694Z,22.92
2024-04-26T00:25:46.273Z,21.75
2024-04-26T00:28:17.543Z,20.00
2024-04-26T00:30:49.833Z,21.27
2024-04-26T00:33:25.064Z,19.90
2024-04-26T00:35:56.739Z,20.58
2024-04-26T00:38:28.262Z,22.10
2024-04-26T00:40:59.255Z,21.90
2024-04-26T00:43:29.815Z,21.00
2024-04-26T00:46:03.403Z,20.88
2024-04-26T00:48:37.400Z,20.67
2024-04-26T00:51:09.277Z,20.67
2024-04-26T00:53:40.505Z,20.25
2024-04-26T00:56:11.902Z,20.17
2024-04-26T00:58:44.661Z,21.65
2024-04-26T01:01:16.499Z,22.92
2024-04-26T01:06:21.563Z,20.63
2024-04-26T01:11:25.190Z,20.55
2024-04-26T01:13:56.167Z,21.60
2024-04-26T01:16:27.204Z,20.67
2024-04-26T01:19:01.787Z,19.10
2024-04-26T01:21:33.401Z,20.00
2024-04-26T01:24:09.895Z,19.75
2024-04-26T01:26:43.310Z,18.95
2024-04-26T01:29:15.490Z,18.88
2024-04-26T01:31:46.788Z,18.00
2024-04-26T01:34:18.443Z,18.77
2024-04-26T01:36:49.830Z,18.17
2024-04-26T01:39:23.202Z,17.23
2024-04-26T01:41:56.830Z,16.40
2024-04-26T01:44:28.324Z,16.42
2024-04-26T01:46:59.875Z,16.30
2024-04-26T01:49:31.434Z,16.60
2024-04-26T01:52:03.190Z,14.38
2024-04-26T01:54:37.232Z,13.25
2024-04-26T01:57:05.400Z,13.35
2024-04-26T01:59:37.572Z,15.00
2024-04-26T02:02:06.890Z,15.15
2024-04-26T02:04:38.239Z,14.93
2024-04-26T02:07:07.346Z,16.38
2024-04-26T02:09:40.560Z,15.75
2024-04-26T02:12:09.034Z,15.15
2024-04-26T02:14:41.102Z,15.30
2024-04-26T02:17:10.292Z,14.75
2024-04-26T02:19:40.783Z,14.85
2024-04-26T02:22:09.454Z,14.65
2024-04-26T02:24:43.519Z,14.43
2024-04-26T02:27:14.852Z,13.80
2024-04-26T02:29:45.551Z,13.35
2024-04-26T02:32:17.047Z,13.45
2024-04-26T02:34:48.104Z,13.10
2024-04-26T02:37:20.680Z,13.18
2024-04-26T02:39:54.245Z,13.27
2024-04-26T02:42:26.143Z,13.73
2024-04-26T02:44:56.813Z,13.93
2024-04-26T02:47:28.077Z,15.48
2024-04-26T02:49:59.085Z,16.40
2024-04-26T02:52:31.599Z,16.55
2024-04-26T02:55:05.904Z,16.75
2024-04-26T02:57:36.710Z,18.25
2024-04-26T03:00:09.813Z,18.63
2024-04-26T03:02:42.180Z,18.58
2024-04-26T03:05:13.372Z,17.98
2024-04-26T03:07:45.206Z,17.00
2024-04-26T03:10:19.960Z,15.35
2024-04-26T03:12:51.041Z,14.70
2024-04-26T03:15:23.909Z,14.18
2024-04-26T03:20:29.049Z,13.90
2024-04-26T03:23:00.820Z,14.35
2024-04-26T03:25:35.060Z,14.15
2024-04-26T03:28:06.921Z,14.70
2024-04-26T03:30:37.496Z,14.73
2024-04-26T03:33:09.393Z,14.65
2024-04-26T03:35:40.542Z,13.57
2024-04-26T03:38:11.825Z,13.52
2024-04-26T03:40:46.819Z,12.57
2024-04-26T03:43:18.728Z,13.02
2024-04-26T03:45:49.671Z,13.30
2024-04-26T03:48:20.985Z,14.65
2024-04-26T03:50:53.283Z,13.55
2024-04-26T03:53:24.528Z,13.48
2024-04-26T03:55:57.650Z,14.38
2024-04-26T03:58:29.038Z,14.40
2024-04-26T04:01:00.414Z,15.32
2024-04-26T04:03:34.910Z,15.52
2024-04-26T04:06:06.480Z,15.40
2024-04-26T04:08:37.882Z,14.80
2024-04-26T04:11:11.810Z,15.23
2024-04-26T04:13:43.671Z,16.83
2024-04-26T04:16:14.785Z,15.47
2024-04-26T04:18:46.390Z,15.80
2024-04-26T04:21:19.595Z,15.30
2024-04-26T04:23:52.693Z,14.88
2024-04-26T04:26:27.004Z,14.38
2024-04-26T04:28:58.988Z,14.77
2024-04-26T04:34:01.501Z,15.48
2024-04-26T04:36:33.313Z,14.35
2024-04-26T04:39:05.899Z,13.48
2024-04-26T04:41:39.667Z,13.10
2024-04-26T04:44:11.096Z,12.77
2024-04-26T04:46:41.670Z,12.98
2024-04-26T04:49:12.783Z,12.38
2024-04-26T04:51:44.032Z,12.20
2024-04-26T04:54:15.616Z,13.27
2024-04-26T04:56:50.152Z,13.52
2024-04-26T04:59:22.141Z,14.07
2024-04-26T05:04:25.029Z,14.38
2024-04-26T05:06:56.088Z,13.43
2024-04-26T05:09:28.492Z,14.20
2024-04-26T05:12:02.342Z,14.00
2024-04-26T05:14:33.417Z,13.30
2024-04-26T05:17:05.171Z,13.48
2024-04-26T05:19:37.517Z,12.55
2024-04-26T05:22:11.198Z,11.80
2024-04-26T05:27:17.176Z,10.25
2024-04-26T05:29:48.614Z,10.27
2024-04-26T05:32:19.917Z,9.77
2024-04-26T05:34:51.305Z,9.27
2024-04-26T05:37:21.926Z,9.20
2024-04-26T05:39:53.277Z,8.63
2024-04-26T05:42:27.187Z,9.13
2024-04-26T05:44:55.622Z,8.65
2024-04-26T05:47:30.848Z,8.70
2024-04-26T05:50:02.545Z,9.00
2024-04-26T05:52:33.721Z,8.77
2024-04-26T05:55:04.182Z,8.82
2024-04-26T05:57:37.702Z,9.00
2024-04-26T06:00:09.796Z,8.90
2024-04-26T06:02:41.590Z,8.90
2024-04-26T06:05:13.762Z,8.85
2024-04-26T06:07:45.059Z,8.63
2024-04-26T06:10:16.612Z,9.75
2024-04-26T06:12:52.660Z,8.77
2024-04-26T06:15:26.377Z,9.10
2024-04-26T06:20:29.005Z,8.80
2024-04-26T06:23:01.586Z,8.70
2024-04-26T06:25:32.837Z,8.77
2024-04-26T06:28:10.229Z,9.18
2024-04-26T06:30:42.562Z,8.48
2024-04-26T06:33:14.447Z,8.57
2024-04-26T06:35:48.071Z,8.25
2024-04-26T06:38:19.669Z,8.25
2024-04-26T06:40:51.345Z,7.93
2024-04-26T06:43:25.881Z,7.80
2024-04-26T06:45:56.521Z,7.68
2024-04-26T06:48:27.334Z,7.90
2024-04-26T06:50:58.333Z,7.88
2024-04-26T06:53:29.764Z,7.57
2024-04-26T06:56:02.243Z,7.78
2024-04-26T07:01:08.293Z,7.25
2024-04-26T07:03:42.567Z,6.88
2024-04-26T07:06:14.399Z,6.68
2024-04-26T07:08:45.947Z,6.70
2024-04-26T07:11:17.140Z,7.05
2024-04-26T07:13:52.338Z,6.97
2024-04-26T07:16:24.280Z,6.70
2024-04-26T07:18:56.313Z,7.38
2024-04-26T07:21:26.771Z,7.50
2024-04-26T07:23:59.616Z,7.28
2024-04-26T07:26:34.134Z,6.95
2024-04-26T07:29:18.818Z,7.25
2024-04-26T07:31:58.285Z,7.20
2024-04-26T07:34:32.250Z,6.70
2024-04-26T07:37:02.835Z,6.00
2024-04-26T07:39:33.656Z,6.38
2024-04-26T07:42:06.884Z,6.80
2024-04-26T07:44:43.024Z,5.95
2024-04-26T07:47:16.031Z,5.00
2024-04-26T07:49:47.598Z,4.03
2024-04-26T07:52:19.052Z,4.18
2024-04-26T07:54:50.172Z,4.00
2024-04-26T07:57:20.782Z,4.72
2024-04-26T07:59:54.513Z,4.85
2024-04-26T08:02:25.836Z,4.68
2024-04-26T08:04:56.936Z,4.65
2024-04-26T08:07:28.387Z,4.90
2024-04-26T08:10:00.970Z,4.47
2024-04-26T08:15:06.560Z,4.75
2024-04-26T08:17:38.871Z,4.93
2024-04-26T08:20:12.996Z,5.10
2024-04-26T08:22:44.456Z,5.10
2024-04-26T08:25:22.928Z,4.90
2024-04-26T08:28:00.079Z,5.07
2024-04-26T08:30:35.985Z,4.90
2024-04-26T08:33:09.589Z,4.93
2024-04-26T08:35:44.965Z,4.70
2024-04-26T08:38:18.161Z,4.80
2024-04-26T08:40:50.197Z,4.97
2024-04-26T08:43:23.870Z,4.57
2024-04-26T08:45:58.947Z,4.93
2024-04-26T08:48:31.823Z,4.90
2024-04-26T08:51:05.142Z,5.00
2024-04-26T08:53:36.783Z,4.57
2024-04-26T08:56:11.021Z,4.80
2024-04-26T08:58:42.553Z,4.47
2024-04-26T09:01:17.455Z,4.68
2024-04-26T09:03:49.215Z,4.43
2024-04-26T09:06:21.149Z,4.65
2024-04-26T09:08:52.739Z,4.30
2024-04-26T09:11:24.239Z,4.07
2024-04-26T09:13:55.429Z,4.20
2024-04-26T09:16:32.726Z,3.97
2024-04-26T09:19:04.877Z,4.35
2024-04-26T09:21:35.600Z,4.10
2024-04-26T09:24:06.516Z,4.20
2024-04-26T09:26:39.040Z,4.03
2024-04-26T09:29:12.000Z,4.38
2024-04-26T09:31:45.676Z,4.45
2024-04-26T09:34:17.847Z,4.15
2024-04-26T09:36:50.136Z,4.57
2024-04-26T09:39:21.907Z,3.90
2024-04-26T09:41:53.352Z,4.00
2024-04-26T09:44:25.842Z,3.90
2024-04-26T09:47:03.011Z,3.92
2024-04-26T09:49:35.127Z,3.88
2024-04-26T09:52:07.841Z,4.22
2024-04-26T09:54:40.127Z,4.20
2024-04-26T09:57:12.723Z,3.92
2024-04-26T09:59:46.443Z,4.50
2024-04-26T10:02:24.947Z,4.30
2024-04-26T10:04:56.414Z,3.72
2024-04-26T10:07:28.794Z,3.90
2024-04-26T10:10:01.154Z,4.25
2024-04-26T10:12:34.102Z,4.30
2024-04-26T10:15:13.644Z,4.00
2024-04-26T10:17:54.049Z,4.05
2024-04-26T10:20:26.248Z,4.10
2024-04-26T10:23:08.257Z,4.13
2024-04-26T10:25:39.311Z,4.03
2024-04-26T10:28:12.675Z,3.78
2024-04-26T10:30:49.016Z,3.92
2024-04-26T10:33:24.841Z,4.03
2024-04-26T10:35:56.099Z,4.03
2024-04-26T10:38:27.202Z,4.28
2024-04-26T10:40:58.340Z,4.35
2024-04-26T10:43:31.012Z,4.25
2024-04-26T10:46:03.935Z,3.80
2024-04-26T10:48:39.603Z,3.70
2024-04-26T10:51:12.318Z,3.72
2024-04-26T10:53:46.730Z,3.75
2024-04-26T10:56:20.877Z,3.78
2024-04-26T10:58:52.024Z,4.13
2024-04-26T11:01:25.422Z,3.92
2024-04-26T11:04:02.743Z,3.90
2024-04-26T11:06:35.031Z,3.88
2024-04-26T11:09:14.047Z,3.85
2024-04-26T11:11:58.420Z,4.00
2024-04-26T11:14:31.269Z,4.03
2024-04-26T11:17:04.318Z,4.40
2024-04-26T11:19:39.951Z,4.28
2024-04-26T11:22:11.756Z,4.10
2024-04-26T11:24:44.645Z,3.90
2024-04-26T11:27:18.834Z,4.53
2024-04-26T11:29:51.614Z,4.28
2024-04-26T11:32:23.028Z,4.05
2024-04-26T11:34:57.343Z,4.30
2024-04-26T11:37:29.933Z,3.92
2024-04-26T11:40:01.140Z,4.03
2024-04-26T11:42:31.906Z,3.67
2024-04-26T11:45:05.009Z,4.43
2024-04-26T11:47:37.599Z,4.07
2024-04-26T11:50:12.428Z,4.43
2024-04-26T11:52:43.030Z,4.70
2024-04-26T11:55:19.379Z,4.43
2024-04-26T11:57:50.118Z,4.32
2024-04-26T12:00:22.049Z,4.55
2024-04-26T12:02:54.595Z,4.40
2024-04-26T12:05:29.052Z,4.50
2024-04-26T12:08:00.997Z,4.32
2024-04-26T12:10:32.945Z,4.45
2024-04-26T12:13:05.480Z,4.20
2024-04-26T12:15:37.515Z,4.50
2024-04-26T12:18:11.788Z,3.83
2024-04-26T12:20:45.917Z,4.10
2024-04-26T12:23:17.051Z,4.07
2024-04-26T12:25:48.251Z,4.25
2024-04-26T12:28:20.718Z,4.35
2024-04-26T12:30:51.747Z,4.10
2024-04-26T12:33:23.934Z,4.30
2024-04-26T12:35:57.944Z,4.03
2024-04-26T12:38:28.957Z,4.03
2024-04-26T12:41:01.391Z,4.30
2024-04-26T12:43:32.442Z,4.32
2024-04-26T12:46:04.919Z,4.82
2024-04-26T12:48:36.267Z,4.13
2024-04-26T12:51:10.577Z,4.60
2024-04-26T12:53:41.209Z,4.05
2024-04-26T12:56:12.186Z,4.25
2024-04-26T12:58:44.059Z,4.43
2024-04-26T13:01:20.282Z,4.55
2024-04-26T13:03:53.468Z,4.70
2024-04-26T13:06:27.459Z,4.38
2024-04-26T13:08:58.053Z,4.32
2024-04-26T13:11:29.741Z,6.07
2024-04-26T13:14:01.806Z,4.63
2024-04-26T13:16:33.095Z,4.53
2024-04-26T13:19:05.950Z,4.47
2024-04-26T13:21:46.174Z,4.50
2024-04-26T13:24:17.589Z,4.40
2024-04-26T13:26:50.304Z,4.60
2024-04-26T13:29:23.761Z,4.55
2024-04-26T13:31:55.487Z,5.70
2024-04-26T13:34:26.676Z,4.57
2024-04-26T13:37:01.361Z,6.80
2024-04-26T13:39:33.055Z,4.95
2024-04-26T13:42:04.944Z,4.50
2024-04-26T13:44:35.687Z,4.82
2024-04-26T13:47:07.169Z,4.88
2024-04-26T13:49:39.577Z,4.93
2024-04-26T13:52:13.412Z,4.75
2024-04-26T13:54:41.388Z,5.43
2024-04-26T13:57:14.211Z,4.95
2024-04-26T13:59:46.473Z,12.60
2024-04-26T14:02:18.891Z,9.98
2024-04-26T14:04:51.804Z,7.22
2024-04-26T14:07:25.247Z,5.60
2024-04-26T14:09:59.655Z,5.25
2024-04-26T14:12:32.298Z,5.57
2024-04-26T14:15:04.463Z,5.38
2024-04-26T14:17:36.540Z,5.47
2024-04-26T14:20:07.830Z,5.28
2024-04-26T14:22:41.106Z,5.43
2024-04-26T14:25:12.670Z,6.25
2024-04-26T14:27:45.281Z,6.07
2024-04-26T14:30:16.199Z,5.75
2024-04-26T14:32:47.382Z,5.55
2024-04-26T14:35:18.454Z,10.35
2024-04-26T14:37:52.937Z,9.45
2024-04-26T14:40:23.586Z,5.70
2024-04-26T14:42:54.917Z,5.32
2024-04-26T14:45:26.491Z,5.30
2024-04-26T14:47:57.281Z,5.30
2024-04-26T14:50:28.924Z,5.57
2024-04-26T14:53:02.139Z,5.23
2024-04-26T14:55:33.274Z,6.32
2024-04-26T14:58:04.284Z,6.72
2024-04-26T15:00:35.156Z,7.05
2024-04-26T15:03:06.839Z,8.00
2024-04-26T15:05:38.199Z,6.88
2024-04-26T15:08:12.126Z,6.90
2024-04-26T15:10:44.887Z,6.13
2024-04-26T15:13:17.372Z,5.97
2024-04-26T15:15:48.785Z,5.60
2024-04-26T15:18:21.367Z,6.28
2024-04-26T15:20:52.908Z,5.53
2024-04-26T15:23:29.409Z,5.47
2024-04-26T15:26:02.032Z,5.68
2024-04-26T15:28:33.016Z,6.07
2024-04-26T15:31:04.844Z,6.18
2024-04-26T15:33:36.278Z,5.57
2024-04-26T15:36:08.879Z,5.80
2024-04-26T15:38:43.197Z,5.53
2024-04-26T15:41:14.484Z,5.80
2024-04-26T15:43:45.801Z,5.53
2024-04-26T15:46:16.917Z,5.72
2024-04-26T15:48:48.096Z,5.30
2024-04-26T15:51:19.950Z,5.65
2024-04-26T15:53:54.111Z,5.75
2024-04-26T15:56:25.535Z,5.50
2024-04-26T15:58:57.189Z,5.63
2024-04-26T16:01:31.294Z,6.20
2024-04-26T16:04:03.728Z,6.20
2024-04-26T16:06:36.925Z,6.22
2024-04-26T16:09:10.665Z,6.07
2024-04-26T16:11:42.085Z,6.00
2024-04-26T16:14:13.557Z,6.45
2024-04-26T16:16:45.244Z,5.85
2024-04-26T16:19:16.151Z,6.07
2024-04-26T16:21:48.276Z,6.40
2024-04-26T16:24:22.002Z,6.00
2024-04-26T16:26:53.318Z,5.93
2024-04-26T16:29:24.762Z,5.90
2024-04-26T16:31:56.225Z,6.10
2024-04-26T16:34:27.689Z,5.97
2024-04-26T16:36:59.376Z,9.17
2024-04-26T16:39:33.293Z,6.60
2024-04-26T16:42:04.655Z,6.20
2024-04-26T16:44:35.919Z,8.73
2024-04-26T16:47:07.671Z,6.85
2024-04-26T16:52:11.230Z,6.72
2024-04-26T16:54:45.864Z,6.68
2024-04-26T16:57:16.593Z,7.10
2024-04-26T16:59:50.057Z,7.07
2024-04-26T17:02:22.004Z,6.78
2024-04-26T17:04:53.030Z,6.30
2024-04-26T17:07:24.639Z,7.22
2024-04-26T17:09:58.035Z,6.32
2024-04-26T17:12:28.615Z,6.20
2024-04-26T17:15:00.007Z,6.50
2024-04-26T17:17:31.312Z,5.95
2024-04-26T17:20:03.388Z,6.47
2024-04-26T17:25:08.600Z,6.70
2024-04-26T17:27:40.131Z,6.00
2024-04-26T17:30:13.962Z,9.32
2024-04-26T17:32:45.342Z,8.25
2024-04-26T17:35:17.020Z,7.88
2024-04-26T17:37:48.174Z,10.63
2024-04-26T17:40:22.788Z,10.02
2024-04-26T17:42:53.524Z,8.40
2024-04-26T17:45:24.529Z,8.02
2024-04-26T17:47:56.073Z,8.27
2024-04-26T17:50:27.690Z,8.35
2024-04-26T17:53:01.442Z,9.45
2024-04-26T17:55:35.710Z,9.05
2024-04-26T17:58:07.415Z,9.90
2024-04-26T18:00:38.171Z,10.60
2024-04-26T18:03:09.748Z,11.38
2024-04-26T18:05:42.514Z,12.55
2024-04-26T18:08:14.253Z,12.40
2024-04-26T18:10:48.577Z,12.18
2024-04-26T18:13:20.335Z,13.52
2024-04-26T18:15:52.193Z,16.15
2024-04-26T18:18:24.108Z,15.05
2024-04-26T18:20:54.780Z,15.98
2024-04-26T18:23:25.760Z,15.18
2024-04-26T18:26:00.333Z,15.70
2024-04-26T18:28:32.742Z,14.98
2024-04-26T18:31:04.320Z,15.05
2024-04-26T18:33:34.902Z,16.13
2024-04-26T18:36:05.415Z,15.85
2024-04-26T18:38:38.419Z,15.30
2024-04-26T18:41:13.545Z,15.10
2024-04-26T18:43:46.697Z,14.98
2024-04-26T18:46:19.766Z,13.80
2024-04-26T18:48:50.731Z,14.15
2024-04-26T18:51:21.818Z,14.05
2024-04-26T18:53:52.426Z,14.35
2024-04-26T18:56:27.258Z,15.50
2024-04-26T18:58:58.459Z,14.60
2024-04-26T19:01:29.765Z,14.63
2024-04-26T19:04:01.598Z,14.63
2024-04-26T19:09:04.278Z,14.05
2024-04-26T19:11:38.568Z,15.00
2024-04-26T19:14:10.685Z,14.63
2024-04-26T19:16:46.065Z,14.65
2024-04-26T19:19:18.616Z,14.90
2024-04-26T19:21:49.720Z,15.32
2024-04-26T19:24:20.312Z,15.35
2024-04-26T19:26:55.254Z,15.55
2024-04-26T19:29:25.946Z,15.48
2024-04-26T19:31:57.730Z,15.35
2024-04-26T19:34:30.323Z,15.55
2024-04-26T19:37:01.856Z,15.63
2024-04-26T19:39:33.006Z,15.68
2024-04-26T19:42:07.123Z,15.93
2024-04-26T19:44:39.771Z,15.77
2024-04-26T19:47:12.696Z,15.88
2024-04-26T19:49:44.148Z,16.00
2024-04-26T19:52:35.035Z,15.68
2024-04-26T19:55:22.367Z,15.77
2024-04-26T19:57:58.190Z,16.35
2024-04-26T20:00:29.596Z,16.75
2024-04-26T20:03:01.284Z,16.20
2024-04-26T20:05:31.954Z,16.53
2024-04-26T20:08:03.776Z,16.67
2024-04-26T20:13:11.798Z,16.63
2024-04-26T20:15:43.200Z,16.60
2024-04-26T20:18:15.210Z,16.73
2024-04-26T20:20:48.003Z,16.33
2024-04-26T20:23:18.800Z,16.40
2024-04-26T20:25:49.834Z,16.33
2024-04-26T20:28:25.053Z,16.30
2024-04-26T20:30:56.172Z,15.95
2024-04-26T20:33:27.622Z,16.25
2024-04-26T20:35:58.128Z,15.45
2024-04-26T20:38:29.342Z,16.75
2024-04-26T20:41:00.678Z,16.03
2024-04-26T20:43:34.685Z,16.48
2024-04-26T20:46:05.259Z,16.63
2024-04-26T20:48:36.665Z,15.75
2024-04-26T20:51:07.598Z,16.88
2024-04-26T20:53:39.096Z,16.25
2024-04-26T20:56:17.194Z,15.70
2024-04-26T20:58:54.877Z,15.60
2024-04-26T21:01:27.495Z,16.08
2024-04-26T21:03:59.159Z,16.60
2024-04-26T21:06:30.494Z,16.48
2024-04-26T21:09:02.274Z,16.60
2024-04-26T21:11:33.089Z,17.20
2024-04-26T21:14:06.418Z,16.83
2024-04-26T21:16:37.577Z,16.10
2024-04-26T21:19:09.001Z,16.83
2024-04-26T21:21:40.784Z,16.20
2024-04-26T21:24:12.358Z,16.45
2024-04-26T21:26:42.947Z,16.38
2024-04-26T21:29:17.693Z,16.03
2024-04-26T21:31:49.049Z,16.48
2024-04-26T21:34:20.879Z,15.70
2024-04-26T21:36:51.360Z,16.27
2024-04-26T21:39:23.214Z,16.08
2024-04-26T21:41:54.607Z,16.02
2024-04-26T21:44:35.507Z,15.65
2024-04-26T21:49:39.127Z,16.53
2024-04-26T21:52:12.314Z,16.48
2024-04-26T21:54:43.391Z,16.40
2024-04-26T21:57:14.757Z,16.90
2024-04-26T21:59:50.768Z,16.60
2024-04-26T22:02:22.513Z,16.73
2024-04-26T22:04:54.361Z,16.88
2024-04-26T22:07:25.781Z,17.17
2024-04-26T22:09:56.314Z,16.38
2024-04-26T22:12:29.010Z,16.02
2024-04-26T22:17:34.029Z,15.98
2024-04-26T22:20:04.874Z,16.45
2024-04-26T22:22:36.766Z,16.20
2024-04-26T22:27:44.251Z,15.57
2024-04-26T22:30:18.864Z,15.20
2024-04-26T22:32:50.259Z,15.95
2024-04-26T22:35:21.748Z,15.82
2024-04-26T22:37:53.777Z,14.88
2024-04-26T22:40:26.246Z,15.27
2024-04-26T22:42:57.357Z,15.68
2024-04-26T22:45:30.832Z,15.38
2024-04-26T22:48:02.874Z,16.20
2024-04-26T22:50:35.056Z,15.40
2024-04-26T22:53:06.920Z,16.00
2024-04-26T22:55:38.812Z,15.52
2024-04-26T22:58:09.945Z,14.75
2024-04-26T23:00:43.584Z,15.30
2024-04-26T23:03:15.037Z,15.20
2024-04-26T23:05:46.089Z,15.10
2024-04-26T23:08:16.813Z,15.33
2024-04-26T23:10:49.278Z,15.05
2024-04-26T23:13:20.651Z,15.18
2024-04-26T23:15:54.323Z,15.30
2024-04-26T23:18:25.796Z,15.13
2024-04-26T23:20:56.276Z,15.20
2024-04-26T23:23:27.641Z,15.02
2024-04-26T23:26:01.654Z,15.10
2024-04-26T23:28:32.949Z,15.57
2024-04-26T23:31:08.803Z,14.90
2024-04-26T23:33:39.689Z,15.60
2024-04-26T23:36:12.364Z,15.00
2024-04-26T23:38:43.797Z,15.43
2024-04-26T23:41:15.005Z,15.65
2024-04-26T23:43:46.648Z,14.70
2024-04-26T23:46:20.519Z,14.57
2024-04-26T23:48:51.602Z,15.68
2024-04-26T23:51:23.164Z,14.93
2024-04-26T23:53:54.283Z,14.90
2024-04-26T23:56:25.733Z,15.70
2024-04-26T23:58:58.380Z,15.48
